Time;durP1;ratioP1;P1;durP2;ratioP2;P2;SDS_P1;SDS_P2;PMS_P1;PMS_P2;Temp;Humidity;BMP_temperature;BMP_pressure;BME280_temperature;BME280_humidity;BME280_pressure;Samples;Min_cycle;Max_cycle;Signal;HPM_P1;HPM_P2
2021/11/05 00:01:23;;;;;;;1.20;1.00;;;7.50;98.00;;;;;;6184619;23;20411;-69
2021/11/05 00:03:50;;;;;;;1.20;1.10;;;7.50;98.00;;;;;;6184526;23;20430;-70
2021/11/05 00:06:17;;;;;;;1.20;1.00;;;7.60;98.00;;;;;;6184769;23;20402;-71
2021/11/05 00:08:44;;;;;;;1.20;0.90;;;7.60;98.00;;;;;;6184412;23;20493;-69
2021/11/05 00:11:11;;;;;;;1.20;1.00;;;7.60;98.00;;;;;;6184556;23;20864;-70
2021/11/05 00:13:38;;;;;;;1.20;0.97;;;7.70;98.00;;;;;;6184632;23;20460;-72
2021/11/05 00:16:05;;;;;;;2.13;1.33;;;7.60;98.00;;;;;;6184386;23;20472;-70
2021/11/05 00:18:34;;;;;;;1.20;1.10;;;7.70;98.00;;;;;;6184709;23;20400;-72
2021/11/05 00:21:01;;;;;;;1.20;1.00;;;7.70;98.00;;;;;;6184800;23;20456;-70
2021/11/05 00:23:29;;;;;;;1.30;1.10;;;7.80;98.00;;;;;;6184518;23;20433;-69
2021/11/05 00:25:56;;;;;;;2.27;1.40;;;7.70;98.00;;;;;;6158164;23;20430;-72
2021/11/05 00:28:23;;;;;;;1.40;1.10;;;7.70;98.00;;;;;;6184513;23;20478;-70
2021/11/05 00:30:50;;;;;;;1.20;1.10;;;7.60;98.00;;;;;;6184623;23;20411;-71
2021/11/05 00:33:17;;;;;;;1.20;1.00;;;7.70;98.00;;;;;;6184283;23;20938;-71
2021/11/05 00:35:46;;;;;;;1.20;1.10;;;7.80;98.00;;;;;;6184646;23;20407;-69
2021/11/05 00:38:13;;;;;;;1.20;1.00;;;7.80;98.00;;;;;;6184611;23;20460;-70
2021/11/05 00:40:40;;;;;;;1.70;1.10;;;7.70;98.00;;;;;;6184696;23;20423;-71
2021/11/05 00:43:07;;;;;;;1.20;1.00;;;7.70;98.00;;;;;;6184541;23;20498;-70
2021/11/05 00:45:34;;;;;;;1.20;1.00;;;7.70;98.00;;;;;;6184510;23;20413;-71
2021/11/05 00:48:01;;;;;;;1.20;1.10;;;7.80;98.00;;;;;;6184319;23;20423;-69
2021/11/05 00:50:31;;;;;;;1.20;1.00;;;7.80;98.00;;;;;;6184613;23;20879;-70
2021/11/05 00:53:00;;;;;;;1.50;1.43;;;7.70;98.00;;;;;;6184418;23;20410;-69
2021/11/05 00:55:27;;;;;;;3.53;1.60;;;7.70;98.00;;;;;;6158668;23;20410;-70
2021/11/05 00:57:54;;;;;;;1.73;1.40;;;7.60;98.00;;;;;;6184234;23;20873;-70
2021/11/05 01:00:22;;;;;;;1.20;1.00;;;7.60;98.00;;;;;;6184516;23;20459;-70
2021/11/05 01:02:49;;;;;;;2.27;1.20;;;7.50;98.00;;;;;;6183729;23;20406;-70
2021/11/05 01:05:17;;;;;;;1.20;1.10;;;7.60;98.00;;;;;;6184151;23;20401;-69
2021/11/05 01:07:44;;;;;;;1.23;1.07;;;7.60;98.00;;;;;;6184364;23;20413;-70
2021/11/05 01:10:12;;;;;;;1.50;1.10;;;7.80;98.00;;;;;;6184364;23;20416;-70
2021/11/05 01:12:40;;;;;;;1.20;1.03;;;7.70;98.00;;;;;;6184115;23;20701;-70
2021/11/05 01:15:09;;;;;;;1.20;1.00;;;7.60;98.00;;;;;;6184120;23;20472;-70
2021/11/05 01:17:36;;;;;;;1.20;0.90;;;7.60;98.00;;;;;;6184067;23;20406;-70
2021/11/05 01:20:05;;;;;;;1.47;1.00;;;7.50;98.00;;;;;;6183958;23;20424;-70
2021/11/05 01:22:32;;;;;;;1.20;1.00;;;7.60;98.00;;;;;;6184407;23;20456;-71
2021/11/05 01:25:00;;;;;;;1.20;0.90;;;7.60;98.00;;;;;;6184255;23;20431;-70
2021/11/05 01:27:28;;;;;;;1.80;1.43;;;7.60;98.00;;;;;;6158177;23;20434;-72
2021/11/05 01:29:59;;;;;;;1.20;1.00;;;7.70;98.00;;;;;;6184437;23;20472;-70
2021/11/05 01:32:27;;;;;;;1.20;1.03;;;7.70;98.00;;;;;;6184180;23;20445;-70
2021/11/05 01:34:55;;;;;;;1.50;1.30;;;7.50;98.00;;;;;;6184229;23;20423;-70
2021/11/05 01:37:22;;;;;;;1.20;1.00;;;7.50;98.00;;;;;;6184389;23;20395;-70
2021/11/05 01:39:50;;;;;;;1.20;1.10;;;7.50;98.00;;;;;;6184039;23;20407;-70
2021/11/05 01:42:17;;;;;;;1.50;1.00;;;7.40;98.00;;;;;;6184903;23;20407;-70
2021/11/05 01:44:47;;;;;;;1.20;1.20;;;7.40;98.00;;;;;;6186149;23;20478;-70
2021/11/05 01:47:14;;;;;;;1.43;1.10;;;7.60;98.00;;;;;;6185960;23;20430;-69
2021/11/05 01:49:44;;;;;;;3.67;1.30;;;7.50;98.00;;;;;;6185798;23;20418;-70
2021/11/05 01:52:11;;;;;;;1.20;1.10;;;7.30;98.00;;;;;;6186015;23;20404;-70
2021/11/05 01:54:39;;;;;;;1.20;1.10;;;7.40;98.00;;;;;;6186198;23;20408;-71
2021/11/05 01:57:07;;;;;;;1.20;1.00;;;7.30;98.00;;;;;;6160326;23;20405;-71
2021/11/05 01:59:36;;;;;;;1.20;1.00;;;7.30;98.00;;;;;;6186345;23;20410;-70
2021/11/05 02:02:08;;;;;;;1.20;0.97;;;7.30;98.00;;;;;;6186247;23;20406;-69
2021/11/05 02:04:35;;;;;;;1.20;1.00;;;7.40;98.00;;;;;;6186235;23;20434;-70
2021/11/05 02:07:03;;;;;;;1.20;1.07;;;7.40;98.00;;;;;;6185671;23;20402;-71
2021/11/05 02:09:33;;;;;;;1.20;1.20;;;7.50;98.00;;;;;;6185459;23;20891;-70
2021/11/05 02:12:03;;;;;;;2.17;1.20;;;7.50;98.00;;;;;;6160195;23;20399;-70
2021/11/05 02:14:30;;;;;;;1.20;0.90;;;7.50;98.00;;;;;;6185775;23;20414;-70
2021/11/05 02:17:00;;;;;;;1.20;1.10;;;7.50;98.00;;;;;;6185846;23;20407;-70
2021/11/05 02:19:31;;;;;;;1.20;1.10;;;7.50;98.00;;;;;;6185226;23;20403;-70
2021/11/05 02:22:01;;;;;;;1.80;1.47;;;7.40;98.00;;;;;;6185803;23;20410;-72
2021/11/05 02:24:30;;;;;;;1.20;1.00;;;7.40;98.00;;;;;;6185578;23;20537;-71
2021/11/05 02:26:58;;;;;;;1.20;1.00;;;7.30;98.00;;;;;;6185193;23;20966;-70
2021/11/05 02:29:27;;;;;;;1.20;1.00;;;7.30;98.00;;;;;;6185923;23;20455;-70
2021/11/05 02:31:54;;;;;;;1.37;1.20;;;7.20;98.00;;;;;;6185494;23;20405;-70
2021/11/05 02:34:22;;;;;;;1.90;1.83;;;7.30;98.00;;;;;;6185588;23;20975;-70
2021/11/05 02:36:49;;;;;;;1.80;1.27;;;7.20;98.00;;;;;;6185812;23;20404;-71
2021/11/05 02:39:19;;;;;;;1.20;1.00;;;7.20;98.00;;;;;;6185306;23;20426;-71
2021/11/05 02:41:48;;;;;;;1.20;0.90;;;7.40;98.00;;;;;;6184803;23;20411;-70
2021/11/05 02:44:16;;;;;;;1.50;1.20;;;7.40;98.00;;;;;;6185323;23;20427;-70
2021/11/05 02:46:43;;;;;;;1.20;0.90;;;7.30;98.00;;;;;;6184594;23;20765;-70
2021/11/05 02:49:14;;;;;;;1.20;1.00;;;7.30;98.00;;;;;;6184689;23;20413;-69
2021/11/05 02:51:42;;;;;;;1.20;1.00;;;7.20;98.00;;;;;;6158345;23;20418;-70
2021/11/05 02:54:09;;;;;;;1.20;1.20;;;7.30;98.00;;;;;;6185458;23;20402;-70
2021/11/05 02:56:38;;;;;;;1.30;1.17;;;7.20;98.00;;;;;;6185588;23;20402;-71
2021/11/05 02:59:06;;;;;;;1.20;1.00;;;7.20;98.00;;;;;;6185504;23;20407;-70
2021/11/05 03:01:35;;;;;;;1.37;1.20;;;7.30;98.00;;;;;;6185621;23;20406;-70
2021/11/05 03:04:03;;;;;;;1.20;0.90;;;7.30;98.00;;;;;;6185371;23;20834;-70
2021/11/05 03:06:35;;;;;;;1.20;1.10;;;7.30;98.00;;;;;;6185267;23;20406;-70
2021/11/05 03:09:08;;;;;;;1.20;1.00;;;7.20;98.00;;;;;;6159551;23;20466;-69
2021/11/05 03:11:35;;;;;;;1.20;0.97;;;7.20;98.00;;;;;;6185583;23;20402;-70
2021/11/05 03:14:04;;;;;;;1.20;1.00;;;7.30;98.00;;;;;;6185640;23;20402;-69
2021/11/05 03:16:31;;;;;;;1.20;1.00;;;7.40;98.00;;;;;;6185870;23;20400;-70
2021/11/05 03:18:58;;;;;;;1.20;1.00;;;7.50;98.00;;;;;;6185604;23;20789;-70
2021/11/05 03:21:33;;;;;;;1.20;1.00;;;7.50;98.00;;;;;;6185729;23;20460;-69
2021/11/05 03:24:01;;;;;;;1.20;1.00;;;7.50;98.00;;;;;;6184653;23;20436;-69
2021/11/05 03:26:28;;;;;;;1.20;1.00;;;7.60;98.00;;;;;;6185144;23;20462;-70
2021/11/05 03:28:55;;;;;;;1.53;1.10;;;7.50;98.00;;;;;;6158692;23;20449;-69
2021/11/05 03:31:23;;;;;;;1.20;0.90;;;7.40;98.00;;;;;;6184198;23;20459;-69
2021/11/05 03:33:51;;;;;;;1.20;1.00;;;7.40;98.00;;;;;;6184643;23;20400;-70
2021/11/05 03:36:17;;;;;;;1.20;0.97;;;7.50;98.00;;;;;;6158644;23;20481;-70
2021/11/05 03:38:45;;;;;;;1.20;1.10;;;7.50;98.00;;;;;;6184317;23;20418;-70
2021/11/05 03:41:12;;;;;;;1.20;0.97;;;7.60;98.00;;;;;;6158838;23;20427;-69
2021/11/05 03:43:40;;;;;;;1.20;1.00;;;7.40;98.00;;;;;;6184652;23;20419;-70
2021/11/05 03:46:07;;;;;;;1.20;1.10;;;7.30;98.00;;;;;;6184927;23;20405;-70
2021/11/05 03:48:39;;;;;;;1.30;1.00;;;7.40;98.00;;;;;;6185018;23;20490;-70
2021/11/05 03:51:06;;;;;;;1.20;1.00;;;7.30;98.00;;;;;;6184600;23;20448;-70
2021/11/05 03:53:33;;;;;;;1.53;1.30;;;7.30;98.00;;;;;;6184888;23;20430;-70
2021/11/05 03:56:00;;;;;;;1.20;1.10;;;7.20;98.00;;;;;;6184625;23;20883;-70
2021/11/05 03:58:27;;;;;;;1.20;1.00;;;7.20;98.00;;;;;;6184574;23;20437;-70
2021/11/05 04:00:55;;;;;;;1.20;1.00;;;7.30;98.00;;;;;;6184891;23;20402;-70
2021/11/05 04:03:23;;;;;;;1.43;1.10;;;7.30;98.00;;;;;;6184488;23;20403;-70
2021/11/05 04:05:51;;;;;;;1.20;0.97;;;7.30;98.00;;;;;;6184197;23;21051;-69
2021/11/05 04:08:18;;;;;;;1.20;1.00;;;7.50;98.00;;;;;;6184770;23;20402;-70
2021/11/05 04:10:46;;;;;;;1.30;1.00;;;7.50;98.00;;;;;;6184886;23;20415;-70
2021/11/05 04:13:13;;;;;;;1.20;1.00;;;7.40;98.00;;;;;;6185045;23;20400;-70
2021/11/05 04:15:41;;;;;;;1.33;1.30;;;7.40;98.00;;;;;;6184900;23;20452;-71
2021/11/05 04:18:08;;;;;;;1.63;1.20;;;7.30;98.00;;;;;;6184542;23;20423;-70
2021/11/05 04:20:35;;;;;;;1.20;1.00;;;7.20;98.00;;;;;;6159034;23;20454;-70
2021/11/05 04:23:06;;;;;;;1.80;1.20;;;7.20;98.00;;;;;;6184831;23;20440;-69
2021/11/05 04:25:34;;;;;;;1.70;1.13;;;7.20;98.00;;;;;;6158900;23;20429;-69
2021/11/05 04:28:01;;;;;;;1.20;1.10;;;7.20;98.00;;;;;;6184610;23;20415;-70
2021/11/05 04:30:28;;;;;;;1.20;1.10;;;7.30;98.00;;;;;;6184988;23;20411;-69
2021/11/05 04:32:55;;;;;;;1.20;1.17;;;7.20;98.00;;;;;;6184542;23;20960;-69
2021/11/05 04:35:23;;;;;;;1.20;1.00;;;7.30;98.00;;;;;;6184925;23;20427;-69
2021/11/05 04:37:50;;;;;;;1.20;1.10;;;7.40;98.00;;;;;;6184834;23;20512;-70
2021/11/05 04:40:18;;;;;;;1.30;1.20;;;7.40;98.00;;;;;;6184569;23;20406;-69
2021/11/05 04:42:47;;;;;;;1.30;1.20;;;7.40;98.00;;;;;;6184322;23;20930;-70
2021/11/05 04:45:14;;;;;;;1.20;1.03;;;7.30;98.00;;;;;;6183840;23;20928;-69
2021/11/05 04:47:45;;;;;;;1.87;1.63;;;7.40;98.00;;;;;;6183990;23;20486;-70
2021/11/05 04:50:12;;;;;;;1.20;0.90;;;7.30;98.00;;;;;;6183442;23;20910;-70
2021/11/05 04:52:39;;;;;;;1.90;1.03;;;7.40;98.00;;;;;;6158163;23;20798;-70
2021/11/05 04:55:08;;;;;;;1.20;1.10;;;7.40;98.00;;;;;;6184092;23;20397;-70
2021/11/05 04:57:36;;;;;;;1.20;1.00;;;7.40;98.00;;;;;;6184037;23;20405;-70
2021/11/05 05:00:05;;;;;;;1.30;1.00;;;7.30;98.00;;;;;;6183970;23;20404;-71
2021/11/05 05:02:32;;;;;;;1.17;0.90;;;7.40;98.00;;;;;;6184387;23;20458;-70
2021/11/05 05:05:00;;;;;;;1.20;1.00;;;7.40;98.00;;;;;;6183877;23;20462;-70
2021/11/05 05:07:27;;;;;;;1.20;1.10;;;7.50;98.00;;;;;;6184136;23;20402;-69
2021/11/05 05:09:55;;;;;;;1.20;1.00;;;7.60;98.00;;;;;;6184179;23;20422;-70
2021/11/05 05:12:22;;;;;;;1.67;1.10;;;7.60;98.00;;;;;;6184520;23;20397;-71
2021/11/05 05:14:53;;;;;;;1.20;1.00;;;7.50;98.00;;;;;;6184333;23;20469;-70
2021/11/05 05:17:20;;;;;;;1.20;0.90;;;7.40;98.00;;;;;;6184467;23;20731;-71
2021/11/05 05:19:48;;;;;;;1.50;1.23;;;7.50;98.00;;;;;;6186470;23;20475;-70
2021/11/05 05:22:15;;;;;;;1.40;1.10;;;7.60;98.00;;;;;;6186446;23;20725;-70
2021/11/05 05:24:42;;;;;;;1.57;1.43;;;7.50;98.00;;;;;;6186225;23;20449;-71
2021/11/05 05:27:09;;;;;;;1.63;1.30;;;7.40;98.00;;;;;;6186453;23;20472;-69
2021/11/05 05:29:36;;;;;;;1.50;1.20;;;7.40;98.00;;;;;;6186398;23;20419;-70
2021/11/05 05:32:09;;;;;;;1.20;1.00;;;7.50;98.00;;;;;;6186139;23;20875;-71
2021/11/05 05:34:36;;;;;;;1.70;1.20;;;7.50;98.00;;;;;;6160443;23;20399;-70
2021/11/05 05:37:07;;;;;;;1.20;1.00;;;7.40;98.00;;;;;;6185793;23;20457;-71
2021/11/05 05:39:35;;;;;;;1.30;1.20;;;7.30;98.00;;;;;;6185993;23;20421;-69
2021/11/05 05:42:03;;;;;;;1.37;1.10;;;7.20;98.00;;;;;;6160421;23;20460;-70
2021/11/05 05:44:30;;;;;;;1.20;1.10;;;7.20;98.00;;;;;;6159851;23;20500;-71
2021/11/05 05:46:57;;;;;;;1.20;1.00;;;7.20;98.00;;;;;;6186186;23;20482;-69
2021/11/05 05:49:25;;;;;;;1.20;1.00;;;7.30;98.00;;;;;;6186157;23;20420;-69
2021/11/05 05:51:52;;;;;;;2.57;1.20;;;7.30;98.00;;;;;;6185812;23;20465;-70
2021/11/05 05:54:20;;;;;;;1.20;1.00;;;7.30;98.00;;;;;;6186291;23;20460;-70
2021/11/05 05:56:47;;;;;;;1.20;0.90;;;7.20;98.00;;;;;;6185549;23;20479;-70
2021/11/05 05:59:14;;;;;;;1.20;0.90;;;7.20;98.00;;;;;;6186120;23;20400;-70
2021/11/05 06:01:41;;;;;;;1.40;1.10;;;7.20;98.00;;;;;;6185744;23;20403;-71
2021/11/05 06:04:08;;;;;;;1.20;1.10;;;7.20;98.00;;;;;;6159550;23;20712;-71
2021/11/05 06:06:37;;;;;;;1.30;1.10;;;7.20;98.00;;;;;;6185980;23;20784;-71
2021/11/05 06:09:04;;;;;;;1.20;1.00;;;7.30;98.00;;;;;;6185859;23;20455;-71
2021/11/05 06:11:31;;;;;;;1.20;1.00;;;7.30;98.00;;;;;;6134876;23;20431;-71
2021/11/05 06:13:58;;;;;;;1.20;0.90;;;7.30;98.00;;;;;;6186220;23;20406;-71
2021/11/05 06:16:25;;;;;;;1.20;1.00;;;7.40;98.00;;;;;;6186197;23;20403;-71
2021/11/05 06:18:52;;;;;;;1.20;1.20;;;7.50;98.00;;;;;;6159511;23;20496;-70
2021/11/05 06:21:23;;;;;;;1.20;1.00;;;7.50;98.00;;;;;;6185874;23;20460;-72
2021/11/05 06:23:51;;;;;;;1.60;1.10;;;7.50;98.00;;;;;;6160087;23;20438;-71
2021/11/05 06:26:20;;;;;;;1.20;1.00;;;7.40;98.00;;;;;;6185826;23;20934;-71
2021/11/05 06:28:47;;;;;;;1.40;1.10;;;7.60;98.00;;;;;;6159375;23;20461;-71
2021/11/05 06:31:15;;;;;;;1.13;1.00;;;7.70;98.00;;;;;;6185951;23;20485;-71
2021/11/05 06:33:42;;;;;;;1.20;1.00;;;7.90;98.00;;;;;;6185361;23;20409;-71
2021/11/05 06:36:10;;;;;;;2.10;1.40;;;7.90;98.00;;;;;;6185856;23;20399;-72
2021/11/05 06:38:37;;;;;;;1.30;1.10;;;7.90;98.00;;;;;;6185557;23;20399;-72
2021/11/05 06:41:06;;;;;;;1.80;1.33;;;7.90;98.00;;;;;;6159794;23;20847;-71
2021/11/05 06:43:34;;;;;;;1.20;1.00;;;7.60;98.00;;;;;;6185328;23;20414;-70
2021/11/05 06:46:01;;;;;;;1.50;1.40;;;7.60;98.00;;;;;;6185320;23;20430;-72
2021/11/05 06:48:28;;;;;;;1.20;1.00;;;7.60;98.00;;;;;;6185527;23;20428;-71
2021/11/05 06:50:56;;;;;;;1.20;1.00;;;7.50;98.00;;;;;;6159432;23;20406;-72
2021/11/05 06:53:24;;;;;;;1.30;1.03;;;7.60;98.00;;;;;;6185420;23;20400;-72
2021/11/05 06:55:52;;;;;;;1.20;0.90;;;7.50;98.00;;;;;;6185708;23;20403;-72
2021/11/05 06:58:22;;;;;;;1.20;1.00;;;7.50;98.00;;;;;;6185656;23;20409;-72
2021/11/05 07:00:49;;;;;;;1.30;1.10;;;7.50;98.00;;;;;;6185439;23;20858;-71
2021/11/05 07:03:20;;;;;;;1.20;0.90;;;7.40;98.00;;;;;;6186110;23;20409;-71
2021/11/05 07:05:47;;;;;;;2.90;1.20;;;7.40;98.00;;;;;;6184973;23;20441;-71
2021/11/05 07:08:15;;;;;;;1.20;1.00;;;7.50;98.00;;;;;;6185449;23;20455;-71
2021/11/05 07:10:45;;;;;;;1.30;1.10;;;7.70;98.00;;;;;;6194727;23;20400;-72
2021/11/05 07:13:14;;;;;;;2.17;1.70;;;7.70;98.00;;;;;;6184822;23;20402;-72
2021/11/05 07:15:43;;;;;;;1.20;1.00;;;7.70;98.00;;;;;;6185255;23;20395;-72
2021/11/05 07:18:10;;;;;;;1.20;1.00;;;7.80;98.00;;;;;;6184677;23;20998;-72
2021/11/05 07:20:37;;;;;;;1.47;1.30;;;7.80;98.00;;;;;;6185329;23;20464;-72
2021/11/05 07:23:05;;;;;;;1.20;1.00;;;7.80;98.00;;;;;;6185167;23;20480;-71
2021/11/05 07:25:33;;;;;;;1.40;1.20;;;7.80;98.00;;;;;;6185038;23;20489;-71
2021/11/05 07:28:00;;;;;;;1.50;1.10;;;7.80;98.00;;;;;;6184375;23;20403;-72
2021/11/05 07:30:27;;;;;;;1.33;1.20;;;7.80;98.00;;;;;;6185384;23;20460;-71
2021/11/05 07:32:55;;;;;;;1.20;1.00;;;7.90;98.00;;;;;;6184842;23;20468;-71
2021/11/05 07:35:24;;;;;;;1.20;1.00;;;7.80;98.00;;;;;;6184726;23;20418;-74
2021/11/05 07:37:52;;;;;;;1.27;1.13;;;7.90;98.00;;;;;;6184861;23;20441;-71
2021/11/05 07:40:19;;;;;;;1.50;1.00;;;7.90;98.00;;;;;;6184330;23;20407;-71
2021/11/05 07:42:47;;;;;;;1.93;1.37;;;7.80;98.00;;;;;;6185194;23;20775;-71
2021/11/05 07:45:16;;;;;;;1.20;1.00;;;7.80;98.00;;;;;;6185013;23;20488;-71
2021/11/05 07:47:45;;;;;;;1.20;1.00;;;8.00;98.00;;;;;;6184836;23;20461;-71
2021/11/05 07:50:16;;;;;;;1.20;1.10;;;8.10;98.00;;;;;;6158421;23;20895;-72
2021/11/05 07:52:43;;;;;;;1.20;1.10;;;8.10;98.00;;;;;;6184862;23;20400;-71
2021/11/05 07:55:10;;;;;;;1.20;1.10;;;8.00;98.00;;;;;;6158191;23;20416;-72
2021/11/05 07:57:38;;;;;;;1.20;0.90;;;7.80;98.00;;;;;;6185095;23;20418;-72
2021/11/05 08:00:06;;;;;;;1.20;1.10;;;7.90;98.00;;;;;;6159040;23;20400;-72
2021/11/05 08:02:33;;;;;;;1.47;1.03;;;7.80;98.00;;;;;;6156635;23;20782;-70
2021/11/05 08:05:00;;;;;;;1.20;1.00;;;7.90;98.00;;;;;;6183315;23;20897;-70
2021/11/05 08:07:29;;;;;;;1.80;1.43;;;8.10;98.00;;;;;;6185073;23;20450;-72
2021/11/05 08:09:56;;;;;;;1.20;1.10;;;8.20;98.00;;;;;;6185097;23;20411;-71
2021/11/05 08:12:24;;;;;;;1.50;1.10;;;8.20;98.00;;;;;;6184723;23;20408;-70
2021/11/05 08:14:51;;;;;;;1.20;1.00;;;8.30;98.00;;;;;;6184805;23;20431;-70
2021/11/05 08:17:18;;;;;;;1.40;1.10;;;8.30;98.00;;;;;;6183131;23;20410;-70
2021/11/05 08:19:45;;;;;;;1.20;1.13;;;8.40;98.00;;;;;;6182344;23;20404;-70
2021/11/05 08:22:13;;;;;;;1.30;1.13;;;8.40;98.00;;;;;;6184191;23;20403;-70
2021/11/05 08:24:42;;;;;;;1.50;1.17;;;8.30;98.00;;;;;;6184833;23;20419;-71
2021/11/05 08:27:11;;;;;;;1.20;1.07;;;8.20;98.00;;;;;;6184408;23;20498;-70
2021/11/05 08:29:38;;;;;;;1.20;1.03;;;8.00;98.00;;;;;;6184428;23;20414;-70
2021/11/05 08:32:06;;;;;;;1.20;1.10;;;8.00;98.00;;;;;;6184760;23;20402;-70
2021/11/05 08:34:34;;;;;;;2.17;1.40;;;8.00;98.00;;;;;;6184335;23;20399;-71
2021/11/05 08:37:01;;;;;;;1.30;1.10;;;7.90;98.00;;;;;;6184499;23;20402;-69
2021/11/05 08:39:28;;;;;;;1.30;1.00;;;7.90;98.00;;;;;;6158596;23;20462;-70
2021/11/05 08:41:56;;;;;;;1.37;1.00;;;7.90;98.00;;;;;;6184430;23;20472;-70
2021/11/05 08:44:23;;;;;;;1.57;1.20;;;8.00;98.00;;;;;;6184463;23;20474;-70
2021/11/05 08:46:50;;;;;;;1.20;1.00;;;8.10;98.00;;;;;;6183333;23;20957;-71
2021/11/05 08:49:17;;;;;;;1.20;1.00;;;8.10;98.00;;;;;;6157459;23;20420;-71
2021/11/05 08:51:48;;;;;;;1.50;1.47;;;8.30;98.00;;;;;;6183547;23;20420;-69
2021/11/05 08:54:15;;;;;;;1.20;1.00;;;8.30;98.00;;;;;;6183193;23;20405;-72
2021/11/05 08:56:44;;;;;;;1.30;1.00;;;8.30;98.00;;;;;;6183621;23;20761;-70
2021/11/05 08:59:14;;;;;;;1.13;1.00;;;8.30;98.00;;;;;;6183533;23;20409;-69
2021/11/05 09:01:41;;;;;;;1.20;1.20;;;8.30;98.00;;;;;;6183107;23;20500;-70
2021/11/05 09:04:11;;;;;;;1.83;1.43;;;8.50;98.00;;;;;;6183285;23;20407;-70
2021/11/05 09:06:38;;;;;;;1.20;1.10;;;8.70;98.00;;;;;;6183349;23;20432;-70
2021/11/05 09:09:05;;;;;;;1.20;0.90;;;8.70;98.00;;;;;;6183111;23;20404;-71
2021/11/05 09:11:33;;;;;;;1.30;1.30;;;8.70;98.00;;;;;;6183506;23;20404;-70
2021/11/05 09:14:00;;;;;;;1.20;1.00;;;8.80;98.00;;;;;;6183479;23;20402;-70
2021/11/05 09:16:28;;;;;;;1.20;1.10;;;8.80;98.00;;;;;;6183483;23;20423;-71
2021/11/05 09:18:56;;;;;;;2.03;1.50;;;8.80;98.00;;;;;;6183439;23;20419;-70
2021/11/05 09:21:25;;;;;;;1.20;1.10;;;8.80;98.00;;;;;;6183538;23;20421;-70
2021/11/05 09:23:52;;;;;;;1.30;1.13;;;8.80;98.00;;;;;;6183075;23;20401;-71
2021/11/05 09:26:21;;;;;;;1.50;1.10;;;8.80;98.00;;;;;;6157410;23;20435;-72
2021/11/05 09:28:49;;;;;;;1.20;1.00;;;8.80;98.00;;;;;;6183344;23;20407;-72
2021/11/05 09:31:16;;;;;;;2.23;1.30;;;8.80;98.00;;;;;;6183070;23;20406;-70
2021/11/05 09:33:44;;;;;;;1.20;0.90;;;8.70;98.00;;;;;;6183054;23;20458;-68
2021/11/05 09:36:11;;;;;;;1.20;1.00;;;8.70;98.00;;;;;;6183764;23;20773;-71
2021/11/05 09:38:38;;;;;;;1.40;1.00;;;8.70;98.00;;;;;;6183722;23;20833;-70
2021/11/05 09:41:06;;;;;;;1.20;1.00;;;8.80;98.00;;;;;;6157426;23;20768;-71
2021/11/05 09:43:34;;;;;;;1.20;0.90;;;8.80;98.00;;;;;;6183364;23;20392;-71
2021/11/05 09:46:01;;;;;;;1.20;1.00;;;8.70;98.00;;;;;;6183103;23;20432;-72
2021/11/05 09:48:29;;;;;;;2.37;1.63;;;8.80;98.00;;;;;;6183047;23;20429;-70
2021/11/05 09:50:57;;;;;;;1.20;1.00;;;9.00;98.00;;;;;;6183318;23;20459;-71
2021/11/05 09:53:25;;;;;;;1.30;1.00;;;9.20;98.00;;;;;;6183707;23;20884;-71
2021/11/05 09:55:53;;;;;;;1.20;1.10;;;9.30;98.00;;;;;;6183902;23;20408;-73
2021/11/05 09:58:20;;;;;;;1.20;1.13;;;9.40;98.00;;;;;;6183412;23;20424;-72
2021/11/05 10:00:48;;;;;;;1.20;1.10;;;9.50;98.00;;;;;;6184217;23;20464;-70
2021/11/05 10:03:16;;;;;;;1.20;1.10;;;9.50;98.00;;;;;;6183847;23;20401;-72
2021/11/05 10:05:52;;;;;;;1.40;1.20;;;9.40;98.00;;;;;;6185545;23;20983;-71
2021/11/05 10:08:27;;;;;;;1.20;1.00;;;9.20;98.00;;;;;;6185678;23;20463;-70
2021/11/05 10:10:55;;;;;;;1.60;1.20;;;9.00;98.00;;;;;;6185773;23;20406;-70
2021/11/05 10:13:25;;;;;;;1.40;1.13;;;9.00;98.00;;;;;;6184877;23;20410;-71
2021/11/05 10:15:53;;;;;;;1.30;1.20;;;9.20;98.00;;;;;;6183647;23;20396;-70
2021/11/05 10:18:23;;;;;;;1.23;1.13;;;9.40;98.00;;;;;;6184600;23;20882;-71
2021/11/05 10:21:07;;;;;;;1.63;1.40;;;9.30;98.00;;;;;;6184812;23;20401;-72
2021/11/05 10:23:38;;;;;;;1.20;1.00;;;9.20;98.00;;;;;;6184686;23;20408;-71
2021/11/05 10:28:52;;;;;;;1.20;1.00;;;9.50;98.00;;;;;;6184037;23;20731;-73
2021/11/05 10:31:19;;;;;;;2.70;1.53;;;9.50;98.00;;;;;;6183923;23;20928;-73
2021/11/05 10:33:48;;;;;;;1.30;1.23;;;9.40;98.00;;;;;;6183525;23;20396;-70
2021/11/05 10:36:19;;;;;;;1.33;1.30;;;9.50;98.00;;;;;;6183172;23;20470;-70
2021/11/05 10:38:50;;;;;;;1.20;1.00;;;9.60;98.00;;;;;;6183691;23;20399;-70
2021/11/05 10:41:20;;;;;;;1.20;1.03;;;9.50;98.00;;;;;;6184903;23;20500;-70
2021/11/05 10:43:49;;;;;;;1.20;1.00;;;9.40;98.00;;;;;;6184730;23;20398;-70
2021/11/05 10:46:31;;;;;;;1.20;1.10;;;9.50;98.00;;;;;;6184631;23;20506;-71
2021/11/05 10:49:00;;;;;;;1.60;1.40;;;9.40;98.00;;;;;;6184868;23;21031;-71
2021/11/05 10:51:29;;;;;;;1.10;1.03;;;9.40;98.00;;;;;;6183717;23;20408;-70
2021/11/05 10:53:59;;;;;;;1.10;1.00;;;10.10;98.00;;;;;;6184544;23;20766;-70
2021/11/05 10:56:29;;;;;;;1.77;1.47;;;11.20;98.00;;;;;;6184154;23;20405;-71
2021/11/05 10:58:58;;;;;;;1.93;1.20;;;11.70;98.00;;;;;;6183990;23;20457;-70
2021/11/05 11:01:29;;;;;;;1.30;1.30;;;11.50;98.00;;;;;;6184189;23;20421;-70
2021/11/05 11:03:58;;;;;;;1.50;1.40;;;11.20;98.00;;;;;;6157467;23;20913;-70
2021/11/05 11:06:28;;;;;;;1.20;1.13;;;11.10;98.00;;;;;;6184180;23;20427;-70
2021/11/05 11:08:58;;;;;;;1.70;1.53;;;10.90;98.00;;;;;;6184331;23;20453;-69
2021/11/05 11:11:27;;;;;;;1.77;1.30;;;11.00;98.00;;;;;;6183735;23;20401;-69
2021/11/05 11:13:56;;;;;;;1.50;1.23;;;10.80;98.00;;;;;;6183863;23;20784;-70
2021/11/05 11:16:28;;;;;;;2.70;1.40;;;10.80;98.00;;;;;;6183450;23;20400;-70
2021/11/05 11:19:00;;;;;;;1.30;1.17;;;10.80;98.00;;;;;;6182671;23;20420;-69
2021/11/05 11:21:30;;;;;;;1.40;1.20;;;11.10;98.00;;;;;;6184074;23;20497;-70
2021/11/05 11:24:00;;;;;;;1.73;1.20;;;11.20;98.00;;;;;;6157963;23;20404;-70
2021/11/05 11:26:28;;;;;;;1.23;1.20;;;11.40;98.00;;;;;;6184182;23;20432;-71
2021/11/05 11:28:58;;;;;;;1.43;1.33;;;11.60;98.00;;;;;;6184248;23;20758;-71
2021/11/05 11:31:25;;;;;;;2.27;1.67;;;11.90;98.00;;;;;;6187390;23;20427;-70
2021/11/05 11:34:01;;;;;;;2.10;1.40;;;12.10;98.00;;;;;;6185830;23;20400;-71
2021/11/05 11:36:29;;;;;;;1.30;1.30;;;11.90;98.00;;;;;;6185169;23;20443;-71
2021/11/05 11:38:57;;;;;;;2.53;1.40;;;11.80;98.00;;;;;;6184008;23;20411;-72
2021/11/05 11:41:28;;;;;;;1.20;1.10;;;11.70;98.00;;;;;;6183922;23;20404;-71
2021/11/05 11:43:55;;;;;;;1.33;1.27;;;11.30;98.00;;;;;;6183978;23;20408;-71
2021/11/05 11:46:25;;;;;;;1.87;1.30;;;11.10;98.00;;;;;;6183758;23;20489;-71
2021/11/05 11:48:54;;;;;;;1.97;1.40;;;10.90;98.00;;;;;;6183899;23;20433;-71
2021/11/05 11:51:33;;;;;;;1.57;1.07;;;10.70;98.00;;;;;;6183712;23;20422;-71
2021/11/05 11:54:23;;;;;;;1.50;1.20;;;10.60;98.00;;;;;;6184768;23;20484;-70
2021/11/05 11:56:54;;;;;;;1.20;1.00;;;10.60;98.00;;;;;;6183929;23;20470;-71
2021/11/05 11:59:30;;;;;;;1.33;1.10;;;10.50;98.00;;;;;;6159347;23;20715;-70
2021/11/05 12:01:57;;;;;;;2.10;1.63;;;10.40;98.00;;;;;;6185028;23;20486;-69
2021/11/05 12:04:33;;;;;;;1.20;1.20;;;10.30;98.00;;;;;;6184603;23;20398;-71
2021/11/05 12:07:07;;;;;;;1.50;1.30;;;10.30;98.00;;;;;;6184443;23;20451;-71
2021/11/05 12:09:36;;;;;;;1.30;1.10;;;10.30;98.00;;;;;;6183806;23;20403;-71
2021/11/05 12:12:34;;;;;;;1.40;1.20;;;10.30;98.00;;;;;;6193709;23;20426;-71
2021/11/05 12:15:14;;;;;;;1.60;1.50;;;10.60;98.00;;;;;;6183934;23;20407;-72
2021/11/05 12:18:08;;;;;;;1.97;1.63;;;10.70;98.00;;;;;;6184184;23;20399;-71
2021/11/05 12:20:42;;;;;;;1.20;1.20;;;10.90;98.00;;;;;;6184402;23;20461;-71
2021/11/05 12:23:21;;;;;;;1.40;1.40;;;11.20;98.00;;;;;;6184899;23;20741;-70
2021/11/05 12:25:56;;;;;;;1.43;1.20;;;11.20;98.00;;;;;;6184449;23;20768;-70
2021/11/05 12:28:29;;;;;;;2.00;1.90;;;11.40;98.00;;;;;;6184564;23;20480;-71
2021/11/05 12:31:26;;;;;;;1.20;1.20;;;11.50;98.00;;;;;;6184808;23;20411;-71
2021/11/05 12:33:54;;;;;;;1.70;1.20;;;11.40;98.00;;;;;;6184226;23;20419;-70
2021/11/05 12:36:21;;;;;;;2.97;1.57;;;11.50;98.00;;;;;;6158894;23;20756;-70
2021/11/05 12:39:04;;;;;;;1.33;1.10;;;11.50;98.00;;;;;;6184882;23;20406;-71
2021/11/05 12:41:32;;;;;;;1.30;1.27;;;11.60;98.00;;;;;;6184148;23;20463;-72
2021/11/05 12:44:12;;;;;;;1.30;1.10;;;11.70;98.00;;;;;;6184265;23;20458;-70
2021/11/05 12:46:46;;;;;;;2.83;1.50;;;11.80;98.00;;;;;;6153200;23;20455;-70
2021/11/05 12:49:16;;;;;;;3.10;1.27;;;11.80;98.00;;;;;;6155330;23;20844;-72
2021/11/05 12:51:47;;;;;;;1.47;1.43;;;11.80;98.00;;;;;;6153398;23;20863;-71
2021/11/05 12:54:20;;;;;;;1.20;1.10;;;11.90;98.00;;;;;;6154780;23;20455;-71
2021/11/05 12:56:52;;;;;;;1.30;1.20;;;11.70;98.00;;;;;;6155076;23;20400;-71
2021/11/05 12:59:20;;;;;;;2.07;1.43;;;11.80;98.00;;;;;;6154654;23;20401;-71
2021/11/05 13:02:00;;;;;;;1.37;1.20;;;11.80;98.00;;;;;;6155033;23;20432;-71
2021/11/05 13:04:30;;;;;;;1.77;1.30;;;11.90;98.00;;;;;;6154966;23;20790;-70
2021/11/05 13:07:01;;;;;;;1.57;1.30;;;11.80;98.00;;;;;;6154353;23;20507;-72